createdAt,value
2023-02-19T00:01:43.836Z,1.45
2023-02-19T00:04:20.016Z,1.45
2023-02-19T00:06:49.238Z,1.42
2023-02-19T00:09:19.170Z,1.35
2023-02-19T00:11:47.991Z,1.13
2023-02-19T00:14:18.172Z,1.77
2023-02-19T00:16:46.179Z,0.85
2023-02-19T00:19:20.737Z,1.70
2023-02-19T00:21:50.966Z,1.83
2023-02-19T00:24:19.409Z,1.25
2023-02-19T00:26:47.346Z,1.33
2023-02-19T00:29:17.287Z,1.45
2023-02-19T00:31:45.422Z,1.15
2023-02-19T00:34:14.033Z,1.25
2023-02-19T00:36:42.714Z,1.27
2023-02-19T00:39:14.404Z,1.10
2023-02-19T00:41:41.540Z,1.50
2023-02-19T00:44:11.111Z,1.38
2023-02-19T00:46:40.813Z,1.20
2023-02-19T00:49:16.766Z,1.45
2023-02-19T00:51:44.029Z,1.45
2023-02-19T00:54:12.372Z,1.20
2023-02-19T00:56:40.367Z,1.17
2023-02-19T00:59:07.574Z,1.40
2023-02-19T01:01:34.889Z,1.27
2023-02-19T01:04:02.047Z,1.60
2023-02-19T01:06:30.968Z,1.38
2023-02-19T01:08:58.213Z,1.73
2023-02-19T01:11:25.576Z,0.88
2023-02-19T01:13:52.890Z,1.20
2023-02-19T01:16:22.528Z,1.65
2023-02-19T01:18:49.583Z,1.48
2023-02-19T01:21:21.965Z,1.35
2023-02-19T01:23:50.993Z,1.10
2023-02-19T01:26:20.883Z,1.58
2023-02-19T01:28:48.557Z,1.85
2023-02-19T01:31:24.217Z,1.63
2023-02-19T01:33:55.205Z,1.10
2023-02-19T01:36:22.471Z,1.60
2023-02-19T01:38:50.212Z,1.13
2023-02-19T01:41:21.271Z,1.45
2023-02-19T01:44:14.532Z,2.00
2023-02-19T01:46:43.442Z,1.10
2023-02-19T01:49:22.008Z,1.63
2023-02-19T01:51:56.679Z,1.13
2023-02-19T01:54:27.279Z,1.75
2023-02-19T01:56:56.263Z,1.38
2023-02-19T01:59:23.721Z,0.98
2023-02-19T02:01:52.345Z,1.50
2023-02-19T02:04:19.754Z,1.30
2023-02-19T02:06:56.839Z,2.00
2023-02-19T02:09:46.950Z,2.22
2023-02-19T02:12:14.371Z,1.45
2023-02-19T02:14:47.907Z,2.03
2023-02-19T02:17:26.952Z,1.98
2023-02-19T02:20:03.562Z,1.40
2023-02-19T02:22:41.194Z,1.42
2023-02-19T02:25:37.561Z,1.67
2023-02-19T02:28:30.052Z,1.02
2023-02-19T02:31:08.487Z,1.05
2023-02-19T02:33:59.702Z,0.90
2023-02-19T02:36:32.020Z,1.65
2023-02-19T02:41:28.254Z,1.27
2023-02-19T02:43:55.490Z,1.17
2023-02-19T02:46:33.338Z,1.13
2023-02-19T02:49:07.047Z,1.52
2023-02-19T02:51:43.831Z,1.15
2023-02-19T02:55:02.901Z,1.35
2023-02-19T02:57:32.355Z,1.75
2023-02-19T03:00:00.593Z,0.75
2023-02-19T03:02:31.637Z,1.40
2023-02-19T03:05:25.551Z,1.13
2023-02-19T03:07:56.707Z,1.30
2023-02-19T03:10:33.836Z,1.08
2023-02-19T03:13:25.540Z,1.00
2023-02-19T03:16:20.426Z,1.67
2023-02-19T03:19:12.580Z,1.25
2023-02-19T03:21:44.052Z,1.90
2023-02-19T03:24:31.599Z,0.88
2023-02-19T03:27:01.177Z,1.55
2023-02-19T03:29:35.954Z,1.27
2023-02-19T03:32:25.878Z,1.33
2023-02-19T03:35:19.278Z,1.48
2023-02-19T03:37:58.944Z,1.60
2023-02-19T03:40:30.431Z,0.88
2023-02-19T03:43:00.814Z,2.07
2023-02-19T03:45:46.811Z,1.02
2023-02-19T03:48:32.409Z,1.65
2023-02-19T03:51:13.575Z,1.25
2023-02-19T03:54:02.753Z,1.33
2023-02-19T03:56:59.800Z,1.73
2023-02-19T03:59:38.199Z,0.93
2023-02-19T04:02:12.280Z,1.23
2023-02-19T04:04:58.778Z,1.42
2023-02-19T04:07:30.308Z,1.23
2023-02-19T04:09:57.778Z,1.20
2023-02-19T04:12:25.525Z,1.55
2023-02-19T04:15:00.994Z,1.45
2023-02-19T04:17:36.122Z,1.20
2023-02-19T04:20:09.469Z,1.00
2023-02-19T04:22:38.583Z,1.65
2023-02-19T04:25:06.064Z,1.48
2023-02-19T04:27:37.822Z,2.03
2023-02-19T04:30:07.591Z,1.07
2023-02-19T04:32:35.061Z,1.25
2023-02-19T04:35:02.949Z,1.35
2023-02-19T04:37:30.263Z,1.50
2023-02-19T04:39:57.570Z,1.40
2023-02-19T04:42:25.050Z,1.30
2023-02-19T04:44:52.214Z,1.50
2023-02-19T04:47:20.079Z,1.40
2023-02-19T04:49:47.593Z,0.93
2023-02-19T04:52:15.277Z,1.73
2023-02-19T04:54:43.150Z,1.17
2023-02-19T04:57:11.393Z,1.77
2023-02-19T04:59:39.250Z,1.50
2023-02-19T05:02:06.414Z,1.25
2023-02-19T05:04:36.744Z,1.35
2023-02-19T05:07:04.255Z,1.38
2023-02-19T05:09:31.606Z,1.25
2023-02-19T05:11:59.283Z,1.42
2023-02-19T05:14:27.163Z,1.35
2023-02-19T05:16:54.547Z,1.30
2023-02-19T05:19:21.979Z,1.35
2023-02-19T05:21:49.372Z,0.90
2023-02-19T05:24:17.021Z,2.15
2023-02-19T05:26:45.501Z,1.20
2023-02-19T05:29:13.778Z,1.83
2023-02-19T05:31:41.330Z,1.48
2023-02-19T05:34:09.416Z,1.63
2023-02-19T05:36:38.047Z,1.85
2023-02-19T05:39:06.522Z,1.73
2023-02-19T05:41:34.142Z,1.60
2023-02-19T05:44:01.608Z,1.77
2023-02-19T05:46:30.501Z,1.65
2023-02-19T05:49:01.261Z,1.75
2023-02-19T05:51:29.986Z,1.48
2023-02-19T05:53:58.782Z,1.98
2023-02-19T05:56:42.963Z,1.23
2023-02-19T05:59:18.169Z,1.33
2023-02-19T06:01:46.708Z,1.65
2023-02-19T06:04:15.082Z,1.60
2023-02-19T06:06:44.287Z,1.38
2023-02-19T06:09:12.529Z,1.33
2023-02-19T06:11:41.187Z,1.50
2023-02-19T06:14:09.289Z,1.80
2023-02-19T06:16:37.322Z,1.73
2023-02-19T06:19:05.854Z,1.92
2023-02-19T06:21:34.032Z,1.58
2023-02-19T06:24:06.752Z,1.52
2023-02-19T06:29:01.374Z,1.67
2023-02-19T06:31:30.275Z,1.27
2023-02-19T06:33:57.982Z,1.30
2023-02-19T06:36:25.810Z,2.30
2023-02-19T06:38:54.109Z,1.50
2023-02-19T06:41:22.312Z,2.17
2023-02-19T06:43:50.974Z,1.77
2023-02-19T06:46:19.182Z,1.58
2023-02-19T06:48:47.363Z,0.98
2023-02-19T06:51:25.032Z,1.30
2023-02-19T06:53:56.331Z,1.83
2023-02-19T06:56:29.616Z,0.80
2023-02-19T06:59:00.389Z,1.38
2023-02-19T07:01:28.714Z,1.42
2023-02-19T07:03:57.235Z,1.23
2023-02-19T07:06:27.428Z,1.10
2023-02-19T07:08:57.494Z,1.50
2023-02-19T07:11:25.650Z,1.00
2023-02-19T07:13:57.620Z,1.27
2023-02-19T07:16:28.330Z,1.25
2023-02-19T07:18:59.680Z,1.40
2023-02-19T07:21:27.884Z,1.45
2023-02-19T07:23:55.392Z,1.35
2023-02-19T07:26:23.506Z,1.48
2023-02-19T07:28:52.583Z,1.27
2023-02-19T07:31:22.844Z,1.45
2023-02-19T07:33:51.333Z,1.20
2023-02-19T07:36:20.286Z,0.85
2023-02-19T07:38:48.755Z,2.00
2023-02-19T07:41:17.340Z,1.20
2023-02-19T07:43:45.074Z,0.98
2023-02-19T07:46:15.765Z,1.40
2023-02-19T07:48:45.140Z,0.60
2023-02-19T07:51:19.622Z,1.35
2023-02-19T07:53:48.290Z,1.02
2023-02-19T07:56:16.378Z,1.10
2023-02-19T07:58:44.710Z,1.40
2023-02-19T08:01:40.756Z,1.17
2023-02-19T08:04:09.526Z,1.00
2023-02-19T08:06:37.156Z,1.50
2023-02-19T08:09:06.537Z,1.02
2023-02-19T08:11:52.860Z,1.48
2023-02-19T08:14:20.932Z,1.30
2023-02-19T08:16:52.365Z,0.93
2023-02-19T08:19:20.342Z,1.10
2023-02-19T08:21:48.211Z,1.33
2023-02-19T08:24:15.730Z,1.63
2023-02-19T08:26:43.149Z,0.93
2023-02-19T08:29:11.169Z,1.83
2023-02-19T08:31:39.478Z,1.20
2023-02-19T08:34:07.131Z,0.52
2023-02-19T08:36:34.579Z,0.90
2023-02-19T08:39:02.356Z,1.00
2023-02-19T08:41:30.483Z,1.15
2023-02-19T08:43:58.702Z,1.08
2023-02-19T08:46:26.465Z,1.08
2023-02-19T08:48:54.180Z,1.25
2023-02-19T08:51:21.799Z,1.25
2023-02-19T08:53:49.612Z,1.25
2023-02-19T08:56:18.103Z,0.80
2023-02-19T08:58:46.630Z,0.60
2023-02-19T09:01:19.018Z,1.10
2023-02-19T09:03:46.736Z,1.13
2023-02-19T09:06:20.366Z,1.60
2023-02-19T09:08:48.445Z,1.88
2023-02-19T09:11:15.959Z,1.17
2023-02-19T09:13:44.471Z,1.20
2023-02-19T09:16:12.583Z,0.80
2023-02-19T09:18:40.620Z,1.00
2023-02-19T09:21:08.252Z,1.08
2023-02-19T09:23:36.997Z,0.70
2023-02-19T09:26:08.829Z,1.15
2023-02-19T09:28:36.722Z,1.20
2023-02-19T09:31:09.417Z,0.80
2023-02-19T09:33:37.231Z,0.75
2023-02-19T09:36:05.225Z,0.60
2023-02-19T09:38:32.698Z,0.93
2023-02-19T09:41:06.351Z,0.80
2023-02-19T09:43:34.664Z,0.85
2023-02-19T09:46:12.234Z,0.93
2023-02-19T09:48:40.394Z,0.88
2023-02-19T09:51:11.336Z,0.95
2023-02-19T09:53:44.339Z,2.20
2023-02-19T09:56:12.156Z,0.77
2023-02-19T09:59:00.446Z,1.20
2023-02-19T10:01:34.558Z,1.30
2023-02-19T10:04:02.203Z,1.13
2023-02-19T10:06:30.460Z,1.20
2023-02-19T10:09:31.075Z,1.65
2023-02-19T10:12:00.750Z,1.50
2023-02-19T10:14:57.286Z,1.75
2023-02-19T10:17:30.851Z,1.13
2023-02-19T10:19:59.552Z,1.23
2023-02-19T10:22:27.487Z,1.20
2023-02-19T10:24:57.025Z,0.75
2023-02-19T10:27:30.636Z,1.38
2023-02-19T10:29:59.379Z,1.23
2023-02-19T10:32:27.842Z,1.35
2023-02-19T10:35:13.569Z,0.60
2023-02-19T10:37:46.790Z,1.30
2023-02-19T10:40:21.925Z,1.25
2023-02-19T10:42:52.547Z,1.00
2023-02-19T10:45:30.755Z,1.27
2023-02-19T10:47:58.726Z,0.93
2023-02-19T10:50:31.744Z,1.15
2023-02-19T10:53:01.571Z,0.80
2023-02-19T10:55:37.727Z,0.60
2023-02-19T10:58:40.641Z,0.75
2023-02-19T11:01:14.304Z,0.98
2023-02-19T11:03:42.330Z,0.90
2023-02-19T11:06:12.737Z,0.45
2023-02-19T11:08:51.365Z,0.80
2023-02-19T11:11:37.228Z,0.70
2023-02-19T11:14:24.527Z,0.93
2023-02-19T11:16:57.746Z,0.55
2023-02-19T11:19:37.498Z,0.40
2023-02-19T11:22:39.140Z,0.70
2023-02-19T11:25:19.316Z,0.50
2023-02-19T11:28:21.088Z,0.80
2023-02-19T11:30:49.418Z,0.90
2023-02-19T11:33:16.909Z,0.70
2023-02-19T11:35:45.236Z,0.80
2023-02-19T11:38:15.828Z,0.35
2023-02-19T11:41:05.498Z,1.15
2023-02-19T11:43:58.502Z,0.73
2023-02-19T11:46:57.975Z,0.50
2023-02-19T11:49:28.544Z,0.50
2023-02-19T11:52:01.234Z,1.00
2023-02-19T11:54:51.526Z,0.70
2023-02-19T11:57:49.554Z,1.10
2023-02-19T12:00:31.730Z,1.15
2023-02-19T12:03:23.160Z,0.73
2023-02-19T12:06:02.708Z,1.20
2023-02-19T12:09:13.543Z,0.90
2023-02-19T12:11:56.092Z,0.98
2023-02-19T12:14:44.841Z,0.82
2023-02-19T12:17:50.341Z,0.90
2023-02-19T12:20:55.240Z,1.02
2023-02-19T12:23:44.165Z,0.90
2023-02-19T12:26:27.790Z,1.17
2023-02-19T12:29:31.612Z,0.90
2023-02-19T12:32:41.493Z,1.08
2023-02-19T12:35:26.475Z,0.95
2023-02-19T12:38:15.209Z,0.85
2023-02-19T12:41:03.985Z,0.85
2023-02-19T12:43:33.755Z,0.68
2023-02-19T12:46:17.735Z,0.60
2023-02-19T12:49:06.498Z,0.73
2023-02-19T12:51:42.144Z,0.57
2023-02-19T12:54:35.189Z,0.55
2023-02-19T12:57:18.661Z,1.02
2023-02-19T12:59:50.025Z,0.85
2023-02-19T13:02:34.092Z,1.00
2023-02-19T13:05:41.872Z,1.05
2023-02-19T13:08:34.117Z,0.77
2023-02-19T13:11:16.023Z,1.10
2023-02-19T13:13:49.856Z,0.85
2023-02-19T13:16:19.880Z,0.90
2023-02-19T13:18:58.590Z,1.10
2023-02-19T13:21:58.311Z,1.00
2023-02-19T13:24:34.473Z,1.10
2023-02-19T13:27:11.640Z,0.88
2023-02-19T13:30:10.121Z,1.35
2023-02-19T13:33:03.183Z,0.93
2023-02-19T13:35:56.418Z,0.77
2023-02-19T13:38:24.934Z,0.70
2023-02-19T13:40:58.266Z,0.80
2023-02-19T13:43:35.079Z,1.02
2023-02-19T13:46:12.639Z,0.68
2023-02-19T13:48:42.832Z,0.70
2023-02-19T13:51:13.400Z,0.80
2023-02-19T13:53:48.512Z,1.02
2023-02-19T13:56:37.326Z,0.50
2023-02-19T13:59:25.193Z,1.02
2023-02-19T14:01:55.370Z,0.60
2023-02-19T14:04:43.081Z,1.08
2023-02-19T14:07:11.336Z,0.70
2023-02-19T14:09:42.075Z,0.80
2023-02-19T14:12:10.271Z,0.90
2023-02-19T14:14:39.999Z,0.88
2023-02-19T14:17:10.597Z,0.88
2023-02-19T14:20:02.196Z,0.90
2023-02-19T14:22:48.263Z,0.93
2023-02-19T14:25:24.769Z,1.00
2023-02-19T14:27:54.288Z,1.10
2023-02-19T14:30:24.329Z,0.70
2023-02-19T14:33:02.744Z,1.40
2023-02-19T14:35:43.584Z,1.00
2023-02-19T14:38:36.806Z,1.33
2023-02-19T14:41:06.955Z,0.90
2023-02-19T14:43:36.154Z,0.80
2023-02-19T14:46:25.226Z,0.90
2023-02-19T14:48:53.441Z,0.95
2023-02-19T14:51:51.657Z,1.05
2023-02-19T14:54:30.333Z,0.88
2023-02-19T14:57:00.058Z,1.13
2023-02-19T14:59:29.931Z,0.82
2023-02-19T15:02:03.672Z,0.98
2023-02-19T15:04:37.625Z,0.98
2023-02-19T15:07:09.710Z,1.05
2023-02-19T15:09:48.783Z,0.85
2023-02-19T15:12:23.849Z,0.60
2023-02-19T15:14:56.081Z,0.77
2023-02-19T15:17:30.361Z,0.93
2023-02-19T15:20:03.448Z,0.90
2023-02-19T15:22:35.480Z,0.98
2023-02-19T15:25:05.266Z,1.30
2023-02-19T15:27:36.043Z,1.00
2023-02-19T15:30:04.342Z,0.95
2023-02-19T15:32:32.984Z,0.93
2023-02-19T15:35:03.340Z,1.08
2023-02-19T15:37:35.830Z,1.13
2023-02-19T15:40:08.313Z,1.02
2023-02-19T15:42:38.312Z,0.95
2023-02-19T15:45:26.563Z,0.98
2023-02-19T15:47:57.075Z,1.10
2023-02-19T15:50:30.656Z,1.70
2023-02-19T15:53:07.380Z,1.02
2023-02-19T15:55:56.976Z,0.77
2023-02-19T15:58:32.606Z,0.88
2023-02-19T16:01:09.102Z,1.00
2023-02-19T16:03:37.116Z,0.90
2023-02-19T16:06:10.960Z,0.95
2023-02-19T16:08:40.464Z,1.38
2023-02-19T16:11:28.534Z,1.20
2023-02-19T16:14:18.361Z,1.33
2023-02-19T16:16:49.677Z,1.02
2023-02-19T16:19:47.726Z,1.23
2023-02-19T16:22:19.670Z,0.82
2023-02-19T16:24:50.903Z,1.00
2023-02-19T16:27:39.629Z,0.95
2023-02-19T16:30:26.198Z,1.35
2023-02-19T16:33:39.405Z,1.52
2023-02-19T16:36:22.876Z,1.23
2023-02-19T16:39:08.753Z,0.90
2023-02-19T16:41:48.588Z,1.02
2023-02-19T16:44:22.008Z,1.25
2023-02-19T16:46:51.880Z,1.08
2023-02-19T16:49:20.323Z,1.00
2023-02-19T16:51:48.192Z,1.10
2023-02-19T16:54:16.018Z,0.93
2023-02-19T16:56:43.686Z,1.00
2023-02-19T16:59:11.878Z,1.02
2023-02-19T17:01:39.538Z,1.30
2023-02-19T17:04:11.050Z,1.20
2023-02-19T17:06:40.019Z,1.60
2023-02-19T17:09:08.932Z,1.00
2023-02-19T17:11:37.192Z,1.25
2023-02-19T17:14:04.812Z,1.13
2023-02-19T17:16:40.701Z,1.15
2023-02-19T17:19:19.586Z,1.15
2023-02-19T17:21:47.730Z,0.75
2023-02-19T17:24:15.527Z,1.00
2023-02-19T17:26:43.054Z,1.42
2023-02-19T17:29:15.807Z,1.52
2023-02-19T17:31:43.390Z,1.45
2023-02-19T17:34:10.856Z,1.50
2023-02-19T17:36:38.565Z,1.95
2023-02-19T17:39:12.333Z,2.30
2023-02-19T17:41:39.787Z,1.33
2023-02-19T17:44:10.875Z,1.50
2023-02-19T17:46:41.473Z,1.05
2023-02-19T17:49:11.105Z,1.00
2023-02-19T17:51:38.900Z,1.10
2023-02-19T17:54:08.340Z,0.65
2023-02-19T17:56:36.216Z,1.48
2023-02-19T17:59:04.217Z,1.05
2023-02-19T18:01:32.613Z,1.15
2023-02-19T18:04:00.751Z,1.08
2023-02-19T18:06:28.478Z,1.35
2023-02-19T18:08:56.809Z,1.40
2023-02-19T18:11:24.875Z,1.23
2023-02-19T18:13:53.236Z,1.23
2023-02-19T18:16:22.108Z,1.10
2023-02-19T18:18:49.730Z,1.00
2023-02-19T18:21:17.378Z,0.80
2023-02-19T18:23:46.488Z,1.20
2023-02-19T18:26:19.049Z,0.85
2023-02-19T18:31:13.949Z,0.63
2023-02-19T18:33:41.656Z,0.93
2023-02-19T18:36:12.095Z,0.80
2023-02-19T18:38:39.941Z,1.10
2023-02-19T18:41:11.972Z,1.30
2023-02-19T18:43:41.720Z,0.90
2023-02-19T18:46:10.166Z,1.10
2023-02-19T18:48:37.948Z,0.70
2023-02-19T18:51:06.101Z,0.82
2023-02-19T18:53:33.434Z,0.65
2023-02-19T18:56:02.358Z,0.60
2023-02-19T18:58:30.036Z,0.50
2023-02-19T19:00:59.092Z,0.70
2023-02-19T19:03:26.195Z,1.00
2023-02-19T19:05:53.601Z,0.30
2023-02-19T19:08:21.340Z,0.43
2023-02-19T19:10:48.985Z,0.50
2023-02-19T19:13:16.342Z,0.47
2023-02-19T19:15:45.380Z,0.28
2023-02-19T19:18:12.753Z,0.38
2023-02-19T19:20:42.103Z,0.30
2023-02-19T19:23:09.505Z,0.60
2023-02-19T19:25:37.731Z,0.30
2023-02-19T19:28:05.385Z,0.40
2023-02-19T19:30:33.905Z,0.57
2023-02-19T19:33:01.943Z,0.60
2023-02-19T19:35:32.052Z,0.40
2023-02-19T19:37:59.377Z,0.52
2023-02-19T19:40:26.648Z,0.25
2023-02-19T19:42:54.619Z,0.90
2023-02-19T19:45:21.841Z,0.45
2023-02-19T19:47:49.687Z,0.82
2023-02-19T19:50:18.565Z,0.90
2023-02-19T19:52:45.836Z,0.47
2023-02-19T19:55:13.351Z,0.40
2023-02-19T19:57:41.049Z,0.63
2023-02-19T20:00:10.027Z,0.47
2023-02-19T20:02:40.646Z,0.43
2023-02-19T20:05:08.552Z,0.93
2023-02-19T20:07:36.109Z,0.77
2023-02-19T20:10:04.049Z,0.40
2023-02-19T20:12:31.501Z,1.30
2023-02-19T20:14:59.011Z,0.93
2023-02-19T20:17:29.667Z,0.70
2023-02-19T20:19:56.980Z,0.45
2023-02-19T20:22:24.285Z,0.45
2023-02-19T20:24:53.319Z,0.93
2023-02-19T20:27:21.818Z,0.70
2023-02-19T20:29:49.322Z,0.73
2023-02-19T20:32:20.194Z,0.75
2023-02-19T20:34:48.769Z,1.27
2023-02-19T20:37:16.581Z,1.52
2023-02-19T20:39:44.296Z,1.23
2023-02-19T20:42:16.615Z,1.00
2023-02-19T20:44:44.562Z,0.98
2023-02-19T20:47:11.708Z,0.57
2023-02-19T20:49:45.091Z,0.90
2023-02-19T20:52:15.291Z,1.13
2023-02-19T20:54:43.117Z,0.75
2023-02-19T20:57:11.052Z,0.85
2023-02-19T20:59:39.119Z,0.63
2023-02-19T21:02:12.334Z,0.80
2023-02-19T21:04:40.925Z,0.50
2023-02-19T21:07:08.398Z,0.57
2023-02-19T21:09:36.235Z,0.73
2023-02-19T21:12:03.774Z,0.50
2023-02-19T21:14:31.970Z,0.70
2023-02-19T21:17:00.297Z,0.77
2023-02-19T21:19:27.609Z,0.63
2023-02-19T21:21:55.265Z,0.50
2023-02-19T21:24:23.082Z,0.90
2023-02-19T21:26:50.539Z,0.57
2023-02-19T21:29:23.068Z,0.75
2023-02-19T21:34:22.907Z,0.77
2023-02-19T21:36:50.415Z,0.60
2023-02-19T21:39:21.896Z,0.13
2023-02-19T21:41:51.341Z,0.70
2023-02-19T21:44:19.079Z,0.77
2023-02-19T21:46:46.722Z,0.90
2023-02-19T21:49:14.129Z,0.82
2023-02-19T21:51:44.214Z,0.75
2023-02-19T21:54:21.912Z,0.68
2023-02-19T21:56:49.593Z,0.85
2023-02-19T21:59:16.973Z,0.47
2023-02-19T22:01:44.913Z,0.40
2023-02-19T22:04:18.766Z,0.30
2023-02-19T22:06:46.305Z,0.52
2023-02-19T22:09:16.891Z,0.88
2023-02-19T22:11:44.053Z,0.40
2023-02-19T22:14:11.349Z,0.68
2023-02-19T22:16:38.510Z,0.52
2023-02-19T22:19:05.632Z,0.60
2023-02-19T22:21:33.120Z,0.47
2023-02-19T22:24:02.463Z,0.65
2023-02-19T22:26:32.795Z,0.47
2023-02-19T22:29:00.155Z,0.88
2023-02-19T22:31:28.136Z,0.52
2023-02-19T22:33:57.099Z,0.30
2023-02-19T22:36:27.898Z,0.25
2023-02-19T22:38:55.301Z,0.52
2023-02-19T22:41:23.400Z,0.30
2023-02-19T22:43:54.244Z,0.20
2023-02-19T22:46:24.889Z,0.57
2023-02-19T22:48:52.452Z,0.30
2023-02-19T22:51:24.818Z,0.30
2023-02-19T22:53:58.038Z,0.57
2023-02-19T22:56:28.281Z,0.47
2023-02-19T22:58:57.701Z,0.88
2023-02-19T23:01:25.833Z,1.00
2023-02-19T23:03:56.708Z,0.40
2023-02-19T23:06:30.218Z,0.35
2023-02-19T23:08:59.478Z,1.02
2023-02-19T23:11:30.217Z,0.60
2023-02-19T23:13:58.321Z,0.50
2023-02-19T23:16:26.323Z,0.45
2023-02-19T23:18:54.872Z,0.32
2023-02-19T23:21:23.418Z,0.57
2023-02-19T23:23:50.551Z,0.75
2023-02-19T23:26:18.998Z,0.60
2023-02-19T23:28:46.560Z,0.68
2023-02-19T23:31:14.328Z,0.30
2023-02-19T23:33:42.029Z,0.20
2023-02-19T23:36:10.158Z,0.77
2023-02-19T23:38:37.546Z,0.28
2023-02-19T23:41:08.700Z,0.20
2023-02-19T23:43:36.143Z,0.30
2023-02-19T23:46:04.357Z,0.40
2023-02-19T23:48:32.167Z,0.88
2023-02-19T23:50:59.766Z,0.17
2023-02-19T23:53:27.264Z,0.52
2023-02-19T23:55:54.797Z,0.75
2023-02-19T23:58:22.879Z,0.30
